sensor_id;sensor_type;location;lat;lon;timestamp;temperature;humidity
24382;DHT22;12502;50.678;7.172;2023-04-24T00:02:56;12.00;99.90
24382;DHT22;12502;50.678;7.172;2023-04-24T00:07:58;11.90;99.90
24382;DHT22;12502;50.678;7.172;2023-04-24T00:13:00;11.90;99.90
24382;DHT22;12502;50.678;7.172;2023-04-24T00:18:02;11.90;99.90
24382;DHT22;12502;50.678;7.172;2023-04-24T00:23:04;11.90;99.90
24382;DHT22;12502;50.678;7.172;2023-04-24T00:28:06;11.90;99.90
24382;DHT22;12502;50.678;7.172;2023-04-24T00:33:08;11.90;99.90
24382;DHT22;12502;50.678;7.172;2023-04-24T00:38:10;11.90;99.90
24382;DHT22;12502;50.678;7.172;2023-04-24T00:43:12;12.00;99.90
24382;DHT22;12502;50.678;7.172;2023-04-24T00:48:13;11.80;99.90
24382;DHT22;12502;50.678;7.172;2023-04-24T00:53:15;11.80;99.90
24382;DHT22;12502;50.678;7.172;2023-04-24T00:58:17;11.80;99.90
24382;DHT22;12502;50.678;7.172;2023-04-24T01:03:20;11.80;99.90
24382;DHT22;12502;50.678;7.172;2023-04-24T01:08:23;11.80;99.90
24382;DHT22;12502;50.678;7.172;2023-04-24T01:13:27;11.80;99.90
24382;DHT22;12502;50.678;7.172;2023-04-24T01:18:28;11.80;99.90
24382;DHT22;12502;50.678;7.172;2023-04-24T01:23:30;11.80;99.90
24382;DHT22;12502;50.678;7.172;2023-04-24T01:28:32;11.80;99.90
24382;DHT22;12502;50.678;7.172;2023-04-24T01:33:34;11.80;99.90
24382;DHT22;12502;50.678;7.172;2023-04-24T01:38:35;11.70;99.90
24382;DHT22;12502;50.678;7.172;2023-04-24T01:43:37;11.50;99.90
24382;DHT22;12502;50.678;7.172;2023-04-24T01:48:38;11.60;99.90
24382;DHT22;12502;50.678;7.172;2023-04-24T01:53:40;11.20;99.90
24382;DHT22;12502;50.678;7.172;2023-04-24T01:58:42;11.10;99.90
24382;DHT22;12502;50.678;7.172;2023-04-24T02:03:44;11.10;99.90
24382;DHT22;12502;50.678;7.172;2023-04-24T02:08:46;10.90;99.90
24382;DHT22;12502;50.678;7.172;2023-04-24T02:13:48;11.00;99.90
24382;DHT22;12502;50.678;7.172;2023-04-24T02:18:49;10.70;99.90
24382;DHT22;12502;50.678;7.172;2023-04-24T02:23:53;10.80;99.90
24382;DHT22;12502;50.678;7.172;2023-04-24T02:28:55;10.70;99.90
24382;DHT22;12502;50.678;7.172;2023-04-24T02:33:57;10.50;99.90
24382;DHT22;12502;50.678;7.172;2023-04-24T02:38:59;10.70;99.90
24382;DHT22;12502;50.678;7.172;2023-04-24T02:44:01;10.60;99.90
24382;DHT22;12502;50.678;7.172;2023-04-24T02:49:02;10.30;99.90
24382;DHT22;12502;50.678;7.172;2023-04-24T02:54:04;10.20;99.90
24382;DHT22;12502;50.678;7.172;2023-04-24T02:59:05;10.00;99.90
24382;DHT22;12502;50.678;7.172;2023-04-24T03:04:07;10.00;99.90
24382;DHT22;12502;50.678;7.172;2023-04-24T03:09:09;10.00;99.90
24382;DHT22;12502;50.678;7.172;2023-04-24T03:14:11;9.90;99.90
24382;DHT22;12502;50.678;7.172;2023-04-24T03:19:12;9.70;99.90
24382;DHT22;12502;50.678;7.172;2023-04-24T03:24:14;9.60;99.90
24382;DHT22;12502;50.678;7.172;2023-04-24T03:29:15;9.40;99.90
24382;DHT22;12502;50.678;7.172;2023-04-24T03:34:17;9.50;99.90
24382;DHT22;12502;50.678;7.172;2023-04-24T03:39:20;9.40;99.90
24382;DHT22;12502;50.678;7.172;2023-04-24T03:44:22;9.30;99.90
24382;DHT22;12502;50.678;7.172;2023-04-24T03:49:24;9.60;99.90
24382;DHT22;12502;50.678;7.172;2023-04-24T03:54:26;9.20;99.90
24382;DHT22;12502;50.678;7.172;2023-04-24T03:59:27;9.10;99.90
24382;DHT22;12502;50.678;7.172;2023-04-24T04:04:29;9.20;99.90
24382;DHT22;12502;50.678;7.172;2023-04-24T04:09:31;9.10;99.90
24382;DHT22;12502;50.678;7.172;2023-04-24T04:14:33;9.10;99.90
24382;DHT22;12502;50.678;7.172;2023-04-24T04:19:35;9.10;99.90
24382;DHT22;12502;50.678;7.172;2023-04-24T04:24:37;8.90;99.90
24382;DHT22;12502;50.678;7.172;2023-04-24T04:29:39;8.90;99.90
24382;DHT22;12502;50.678;7.172;2023-04-24T04:34:42;8.90;99.90
24382;DHT22;12502;50.678;7.172;2023-04-24T04:39:44;8.70;99.90
24382;DHT22;12502;50.678;7.172;2023-04-24T04:44:46;8.80;99.90
24382;DHT22;12502;50.678;7.172;2023-04-24T04:49:47;8.80;99.90
24382;DHT22;12502;50.678;7.172;2023-04-24T04:54:49;8.80;99.90
24382;DHT22;12502;50.678;7.172;2023-04-24T04:59:51;8.90;99.90
24382;DHT22;12502;50.678;7.172;2023-04-24T05:04:53;9.00;99.90
24382;DHT22;12502;50.678;7.172;2023-04-24T05:09:56;9.30;99.90
24382;DHT22;12502;50.678;7.172;2023-04-24T05:14:57;9.20;99.90
24382;DHT22;12502;50.678;7.172;2023-04-24T05:19:59;9.30;99.90
24382;DHT22;12502;50.678;7.172;2023-04-24T05:25:02;9.50;99.90
24382;DHT22;12502;50.678;7.172;2023-04-24T05:30:04;9.40;99.90
24382;DHT22;12502;50.678;7.172;2023-04-24T05:35:06;9.40;99.90
24382;DHT22;12502;50.678;7.172;2023-04-24T05:40:08;9.50;99.90
24382;DHT22;12502;50.678;7.172;2023-04-24T05:45:10;9.50;99.90
24382;DHT22;12502;50.678;7.172;2023-04-24T05:50:17;9.60;99.90
24382;DHT22;12502;50.678;7.172;2023-04-24T05:55:19;9.60;99.90
24382;DHT22;12502;50.678;7.172;2023-04-24T06:00:21;9.70;99.90
24382;DHT22;12502;50.678;7.172;2023-04-24T06:05:23;9.70;99.90
24382;DHT22;12502;50.678;7.172;2023-04-24T06:10:25;9.90;99.90
24382;DHT22;12502;50.678;7.172;2023-04-24T06:15:27;9.70;99.90
24382;DHT22;12502;50.678;7.172;2023-04-24T06:20:30;9.80;99.90
24382;DHT22;12502;50.678;7.172;2023-04-24T06:25:33;9.80;99.90
24382;DHT22;12502;50.678;7.172;2023-04-24T06:30:35;9.90;99.90
24382;DHT22;12502;50.678;7.172;2023-04-24T06:35:36;9.90;99.90
24382;DHT22;12502;50.678;7.172;2023-04-24T06:40:39;10.00;99.90
24382;DHT22;12502;50.678;7.172;2023-04-24T06:45:41;10.00;99.90
24382;DHT22;12502;50.678;7.172;2023-04-24T06:50:44;10.00;99.90
24382;DHT22;12502;50.678;7.172;2023-04-24T06:55:46;10.00;99.90
24382;DHT22;12502;50.678;7.172;2023-04-24T07:00:48;10.00;99.90
24382;DHT22;12502;50.678;7.172;2023-04-24T07:05:50;10.00;99.90
24382;DHT22;12502;50.678;7.172;2023-04-24T07:10:53;9.90;99.90
24382;DHT22;12502;50.678;7.172;2023-04-24T07:15:55;9.70;99.90
24382;DHT22;12502;50.678;7.172;2023-04-24T07:20:57;9.50;99.90
24382;DHT22;12502;50.678;7.172;2023-04-24T07:25:59;9.40;99.90
24382;DHT22;12502;50.678;7.172;2023-04-24T07:31:03;9.40;99.90
24382;DHT22;12502;50.678;7.172;2023-04-24T07:36:06;9.40;99.90
24382;DHT22;12502;50.678;7.172;2023-04-24T07:41:07;9.30;99.90
24382;DHT22;12502;50.678;7.172;2023-04-24T07:46:09;9.40;99.90
24382;DHT22;12502;50.678;7.172;2023-04-24T07:51:12;9.40;99.90
24382;DHT22;12502;50.678;7.172;2023-04-24T07:56:15;9.40;99.90
24382;DHT22;12502;50.678;7.172;2023-04-24T08:01:18;9.30;99.90
24382;DHT22;12502;50.678;7.172;2023-04-24T08:06:19;9.40;99.90
24382;DHT22;12502;50.678;7.172;2023-04-24T08:11:21;9.20;99.90
24382;DHT22;12502;50.678;7.172;2023-04-24T08:16:32;8.90;99.90
24382;DHT22;12502;50.678;7.172;2023-04-24T08:21:34;8.80;99.90
24382;DHT22;12502;50.678;7.172;2023-04-24T08:26:40;8.80;99.90
24382;DHT22;12502;50.678;7.172;2023-04-24T08:31:43;8.80;99.90
24382;DHT22;12502;50.678;7.172;2023-04-24T08:36:44;8.80;99.90
24382;DHT22;12502;50.678;7.172;2023-04-24T08:41:49;8.60;99.90
24382;DHT22;12502;50.678;7.172;2023-04-24T08:46:54;8.60;99.90
24382;DHT22;12502;50.678;7.172;2023-04-24T08:51:57;8.60;99.90
24382;DHT22;12502;50.678;7.172;2023-04-24T08:56:59;8.50;99.90
24382;DHT22;12502;50.678;7.172;2023-04-24T09:02:05;8.00;99.90
24382;DHT22;12502;50.678;7.172;2023-04-24T09:07:09;8.00;99.90
24382;DHT22;12502;50.678;7.172;2023-04-24T09:12:11;8.00;99.90
24382;DHT22;12502;50.678;7.172;2023-04-24T09:17:14;8.10;99.90
24382;DHT22;12502;50.678;7.172;2023-04-24T09:22:19;8.10;99.90
24382;DHT22;12502;50.678;7.172;2023-04-24T09:27:23;8.30;99.90
24382;DHT22;12502;50.678;7.172;2023-04-24T09:32:25;8.40;99.90
24382;DHT22;12502;50.678;7.172;2023-04-24T09:37:28;8.30;99.90
24382;DHT22;12502;50.678;7.172;2023-04-24T09:42:32;8.40;99.90
24382;DHT22;12502;50.678;7.172;2023-04-24T09:47:39;8.50;99.90
24382;DHT22;12502;50.678;7.172;2023-04-24T09:52:44;8.70;99.90
24382;DHT22;12502;50.678;7.172;2023-04-24T09:57:54;8.40;99.90
24382;DHT22;12502;50.678;7.172;2023-04-24T10:03:03;8.50;99.90
24382;DHT22;12502;50.678;7.172;2023-04-24T10:08:12;8.40;99.90
24382;DHT22;12502;50.678;7.172;2023-04-24T10:13:15;8.40;99.90
24382;DHT22;12502;50.678;7.172;2023-04-24T10:18:20;8.30;99.90
24382;DHT22;12502;50.678;7.172;2023-04-24T10:23:24;8.20;99.90
24382;DHT22;12502;50.678;7.172;2023-04-24T10:28:26;8.20;99.90
24382;DHT22;12502;50.678;7.172;2023-04-24T10:33:29;8.10;99.90
24382;DHT22;12502;50.678;7.172;2023-04-24T10:38:33;8.00;99.90
24382;DHT22;12502;50.678;7.172;2023-04-24T10:43:37;8.20;99.90
24382;DHT22;12502;50.678;7.172;2023-04-24T10:54:00;8.20;99.90
24382;DHT22;12502;50.678;7.172;2023-04-24T10:59:27;8.10;99.90
24382;DHT22;12502;50.678;7.172;2023-04-24T11:04:29;8.30;99.90
24382;DHT22;12502;50.678;7.172;2023-04-24T11:09:32;8.40;99.90
24382;DHT22;12502;50.678;7.172;2023-04-24T11:20:05;8.90;99.90
24382;DHT22;12502;50.678;7.172;2023-04-24T11:25:28;9.60;99.90
24382;DHT22;12502;50.678;7.172;2023-04-24T11:30:32;9.90;99.90
24382;DHT22;12502;50.678;7.172;2023-04-24T11:35:35;9.70;99.90
24382;DHT22;12502;50.678;7.172;2023-04-24T11:40:41;9.70;99.90
24382;DHT22;12502;50.678;7.172;2023-04-24T11:45:48;9.50;99.90
24382;DHT22;12502;50.678;7.172;2023-04-24T11:50:50;9.60;99.90
24382;DHT22;12502;50.678;7.172;2023-04-24T11:55:51;9.70;99.90
24382;DHT22;12502;50.678;7.172;2023-04-24T12:00:56;9.70;99.90
24382;DHT22;12502;50.678;7.172;2023-04-24T12:06:09;9.50;99.90
24382;DHT22;12502;50.678;7.172;2023-04-24T12:11:11;10.20;99.90
24382;DHT22;12502;50.678;7.172;2023-04-24T12:16:14;9.30;99.90
24382;DHT22;12502;50.678;7.172;2023-04-24T12:26:18;9.60;99.90
24382;DHT22;12502;50.678;7.172;2023-04-24T12:31:20;9.60;99.90
24382;DHT22;12502;50.678;7.172;2023-04-24T12:36:30;9.50;99.90
24382;DHT22;12502;50.678;7.172;2023-04-24T12:41:33;9.40;99.90
24382;DHT22;12502;50.678;7.172;2023-04-24T12:46:39;10.00;99.90
24382;DHT22;12502;50.678;7.172;2023-04-24T12:51:41;10.40;99.90
24382;DHT22;12502;50.678;7.172;2023-04-24T12:56:43;10.40;99.90
24382;DHT22;12502;50.678;7.172;2023-04-24T13:01:44;10.60;99.90
24382;DHT22;12502;50.678;7.172;2023-04-24T13:06:46;10.80;99.90
24382;DHT22;12502;50.678;7.172;2023-04-24T13:11:48;10.90;99.90
24382;DHT22;12502;50.678;7.172;2023-04-24T13:16:50;10.60;99.90
24382;DHT22;12502;50.678;7.172;2023-04-24T13:21:52;10.40;99.90
24382;DHT22;12502;50.678;7.172;2023-04-24T13:26:54;10.20;99.90
24382;DHT22;12502;50.678;7.172;2023-04-24T13:31:58;10.00;99.90
24382;DHT22;12502;50.678;7.172;2023-04-24T13:37:01;10.70;99.90
24382;DHT22;12502;50.678;7.172;2023-04-24T13:42:05;11.50;99.90
24382;DHT22;12502;50.678;7.172;2023-04-24T13:47:06;11.60;99.90
24382;DHT22;12502;50.678;7.172;2023-04-24T13:52:08;11.70;99.90
24382;DHT22;12502;50.678;7.172;2023-04-24T13:57:13;12.00;99.90
24382;DHT22;12502;50.678;7.172;2023-04-24T14:02:16;12.10;99.90
24382;DHT22;12502;50.678;7.172;2023-04-24T14:07:17;12.20;99.90
24382;DHT22;12502;50.678;7.172;2023-04-24T14:12:19;11.60;99.90
24382;DHT22;12502;50.678;7.172;2023-04-24T14:17:21;11.70;99.90
24382;DHT22;12502;50.678;7.172;2023-04-24T14:22:23;11.70;99.90
24382;DHT22;12502;50.678;7.172;2023-04-24T14:27:24;11.60;99.90
24382;DHT22;12502;50.678;7.172;2023-04-24T14:32:27;11.80;99.90
24382;DHT22;12502;50.678;7.172;2023-04-24T14:37:29;12.40;99.90
24382;DHT22;12502;50.678;7.172;2023-04-24T14:42:31;12.20;99.90
24382;DHT22;12502;50.678;7.172;2023-04-24T14:47:33;11.80;99.90
24382;DHT22;12502;50.678;7.172;2023-04-24T14:52:35;11.50;99.90
24382;DHT22;12502;50.678;7.172;2023-04-24T14:57:37;11.40;99.90
24382;DHT22;12502;50.678;7.172;2023-04-24T15:02:39;11.30;99.90
24382;DHT22;12502;50.678;7.172;2023-04-24T15:07:43;11.40;99.90
24382;DHT22;12502;50.678;7.172;2023-04-24T15:12:46;11.80;99.90
24382;DHT22;12502;50.678;7.172;2023-04-24T15:17:48;11.80;99.90
24382;DHT22;12502;50.678;7.172;2023-04-24T15:22:50;11.90;99.90
24382;DHT22;12502;50.678;7.172;2023-04-24T15:27:52;11.90;99.90
24382;DHT22;12502;50.678;7.172;2023-04-24T15:32:53;11.80;99.90
24382;DHT22;12502;50.678;7.172;2023-04-24T15:37:55;11.90;99.90
24382;DHT22;12502;50.678;7.172;2023-04-24T15:42:57;12.20;99.90
24382;DHT22;12502;50.678;7.172;2023-04-24T15:47:59;12.00;99.90
24382;DHT22;12502;50.678;7.172;2023-04-24T15:53:01;11.90;99.90
24382;DHT22;12502;50.678;7.172;2023-04-24T15:58:06;12.00;99.90
24382;DHT22;12502;50.678;7.172;2023-04-24T16:03:14;11.90;99.90
24382;DHT22;12502;50.678;7.172;2023-04-24T16:08:16;11.80;99.90
24382;DHT22;12502;50.678;7.172;2023-04-24T16:13:18;11.80;99.90
24382;DHT22;12502;50.678;7.172;2023-04-24T16:18:19;11.90;99.90
24382;DHT22;12502;50.678;7.172;2023-04-24T16:23:21;12.10;99.90
24382;DHT22;12502;50.678;7.172;2023-04-24T16:28:23;11.90;99.90
24382;DHT22;12502;50.678;7.172;2023-04-24T16:33:24;11.90;99.90
24382;DHT22;12502;50.678;7.172;2023-04-24T16:38:27;11.80;99.90
24382;DHT22;12502;50.678;7.172;2023-04-24T16:43:28;11.70;99.90
24382;DHT22;12502;50.678;7.172;2023-04-24T16:48:31;11.60;99.90
24382;DHT22;12502;50.678;7.172;2023-04-24T16:53:32;11.60;99.90
24382;DHT22;12502;50.678;7.172;2023-04-24T16:58:34;11.70;99.90
24382;DHT22;12502;50.678;7.172;2023-04-24T17:03:37;11.60;99.90
24382;DHT22;12502;50.678;7.172;2023-04-24T17:08:39;11.60;99.90
24382;DHT22;12502;50.678;7.172;2023-04-24T17:13:41;11.60;99.90
24382;DHT22;12502;50.678;7.172;2023-04-24T17:18:43;11.50;99.90
24382;DHT22;12502;50.678;7.172;2023-04-24T17:23:45;11.50;99.90
24382;DHT22;12502;50.678;7.172;2023-04-24T17:28:47;11.50;99.90
24382;DHT22;12502;50.678;7.172;2023-04-24T17:33:49;11.40;99.90
24382;DHT22;12502;50.678;7.172;2023-04-24T17:38:51;11.40;99.90
24382;DHT22;12502;50.678;7.172;2023-04-24T17:43:53;11.30;99.90
24382;DHT22;12502;50.678;7.172;2023-04-24T17:48:54;11.30;99.90
24382;DHT22;12502;50.678;7.172;2023-04-24T17:53:56;11.20;99.90
24382;DHT22;12502;50.678;7.172;2023-04-24T17:58:58;11.20;99.90
24382;DHT22;12502;50.678;7.172;2023-04-24T18:03:59;11.10;99.90
24382;DHT22;12502;50.678;7.172;2023-04-24T18:09:02;11.00;99.90
24382;DHT22;12502;50.678;7.172;2023-04-24T18:14:04;10.90;99.90
24382;DHT22;12502;50.678;7.172;2023-04-24T18:19:06;10.90;99.90
24382;DHT22;12502;50.678;7.172;2023-04-24T18:24:08;10.90;99.90
24382;DHT22;12502;50.678;7.172;2023-04-24T18:29:10;10.80;99.90
24382;DHT22;12502;50.678;7.172;2023-04-24T18:34:12;10.60;99.90
24382;DHT22;12502;50.678;7.172;2023-04-24T18:39:13;10.60;99.90
24382;DHT22;12502;50.678;7.172;2023-04-24T18:44:15;10.30;99.90
24382;DHT22;12502;50.678;7.172;2023-04-24T18:49:17;10.30;99.90
24382;DHT22;12502;50.678;7.172;2023-04-24T18:54:18;10.30;99.90
24382;DHT22;12502;50.678;7.172;2023-04-24T18:59:20;10.20;99.90
24382;DHT22;12502;50.678;7.172;2023-04-24T19:04:22;10.20;99.90
24382;DHT22;12502;50.678;7.172;2023-04-24T19:09:24;10.20;99.90
24382;DHT22;12502;50.678;7.172;2023-04-24T19:14:26;10.10;99.90
24382;DHT22;12502;50.678;7.172;2023-04-24T19:19:28;10.10;99.90
24382;DHT22;12502;50.678;7.172;2023-04-24T19:24:31;10.00;99.90
24382;DHT22;12502;50.678;7.172;2023-04-24T19:29:34;10.10;99.90
24382;DHT22;12502;50.678;7.172;2023-04-24T19:34:35;10.10;99.90
24382;DHT22;12502;50.678;7.172;2023-04-24T19:39:41;10.00;99.90
24382;DHT22;12502;50.678;7.172;2023-04-24T19:44:43;10.00;99.90
24382;DHT22;12502;50.678;7.172;2023-04-24T19:49:45;10.00;99.90
24382;DHT22;12502;50.678;7.172;2023-04-24T19:54:47;9.90;99.90
24382;DHT22;12502;50.678;7.172;2023-04-24T19:59:49;9.90;99.90
24382;DHT22;12502;50.678;7.172;2023-04-24T20:04:51;9.80;99.90
24382;DHT22;12502;50.678;7.172;2023-04-24T20:09:53;9.90;99.90
24382;DHT22;12502;50.678;7.172;2023-04-24T20:14:55;9.80;99.90
24382;DHT22;12502;50.678;7.172;2023-04-24T20:19:56;9.90;99.90
24382;DHT22;12502;50.678;7.172;2023-04-24T20:24:58;9.80;99.90
24382;DHT22;12502;50.678;7.172;2023-04-24T20:30:00;9.80;99.90
24382;DHT22;12502;50.678;7.172;2023-04-24T20:35:14;9.60;99.90
24382;DHT22;12502;50.678;7.172;2023-04-24T20:40:17;9.70;99.90
24382;DHT22;12502;50.678;7.172;2023-04-24T20:45:20;9.60;99.90
24382;DHT22;12502;50.678;7.172;2023-04-24T20:50:22;9.50;99.90
24382;DHT22;12502;50.678;7.172;2023-04-24T20:55:25;9.50;99.90
24382;DHT22;12502;50.678;7.172;2023-04-24T21:00:27;9.50;99.90
24382;DHT22;12502;50.678;7.172;2023-04-24T21:05:29;9.50;99.90
24382;DHT22;12502;50.678;7.172;2023-04-24T21:10:32;9.40;99.90
24382;DHT22;12502;50.678;7.172;2023-04-24T21:15:34;9.30;99.90
24382;DHT22;12502;50.678;7.172;2023-04-24T21:20:35;9.20;99.90
24382;DHT22;12502;50.678;7.172;2023-04-24T21:25:37;9.20;99.90
24382;DHT22;12502;50.678;7.172;2023-04-24T21:30:39;9.10;99.90
24382;DHT22;12502;50.678;7.172;2023-04-24T21:35:41;9.10;99.90
24382;DHT22;12502;50.678;7.172;2023-04-24T21:40:42;9.00;99.90
24382;DHT22;12502;50.678;7.172;2023-04-24T21:45:44;8.90;99.90
24382;DHT22;12502;50.678;7.172;2023-04-24T21:50:46;8.90;99.90
24382;DHT22;12502;50.678;7.172;2023-04-24T21:55:48;8.80;99.90
24382;DHT22;12502;50.678;7.172;2023-04-24T22:00:49;8.60;99.90
24382;DHT22;12502;50.678;7.172;2023-04-24T22:05:51;8.50;99.90
24382;DHT22;12502;50.678;7.172;2023-04-24T22:10:52;8.40;99.90
24382;DHT22;12502;50.678;7.172;2023-04-24T22:15:55;8.30;99.90
24382;DHT22;12502;50.678;7.172;2023-04-24T22:20:57;8.20;99.90
24382;DHT22;12502;50.678;7.172;2023-04-24T22:25:59;8.20;99.90
24382;DHT22;12502;50.678;7.172;2023-04-24T22:31:01;8.10;99.90
24382;DHT22;12502;50.678;7.172;2023-04-24T22:36:03;8.10;99.90
24382;DHT22;12502;50.678;7.172;2023-04-24T22:41:05;8.10;99.90
24382;DHT22;12502;50.678;7.172;2023-04-24T22:46:07;8.20;99.90
24382;DHT22;12502;50.678;7.172;2023-04-24T22:51:09;8.00;99.90
24382;DHT22;12502;50.678;7.172;2023-04-24T22:56:11;8.00;99.90
24382;DHT22;12502;50.678;7.172;2023-04-24T23:01:12;8.00;99.90
24382;DHT22;12502;50.678;7.172;2023-04-24T23:06:14;8.30;99.90
24382;DHT22;12502;50.678;7.172;2023-04-24T23:11:16;8.00;99.90
24382;DHT22;12502;50.678;7.172;2023-04-24T23:16:17;8.00;99.90
24382;DHT22;12502;50.678;7.172;2023-04-24T23:21:19;8.00;99.90
24382;DHT22;12502;50.678;7.172;2023-04-24T23:26:24;7.90;99.90
24382;DHT22;12502;50.678;7.172;2023-04-24T23:31:26;8.10;99.90
24382;DHT22;12502;50.678;7.172;2023-04-24T23:36:27;8.00;99.90
24382;DHT22;12502;50.678;7.172;2023-04-24T23:41:29;8.20;99.90
24382;DHT22;12502;50.678;7.172;2023-04-24T23:46:31;7.90;99.90
24382;DHT22;12502;50.678;7.172;2023-04-24T23:51:33;8.00;99.90
24382;DHT22;12502;50.678;7.172;2023-04-24T23:56:35;7.90;99.90
